logo
Search for airport 
image banner adimage banner adimage banner ad
image banner ad

MMRTI - Rancho El Tanque Del Indio

Located in Jiménez, Mexico

ICAO - , IATA -

Data provided by Airmate  

General information

Coordinates: N27°47'12" W100°36'42"
Elevation is 1148 feet MSL.
Magnetic variation is 4° East
View others Airports in Coahuila

Operational data

Special qualification required
Current time UTC:
Current local time:
Weather at : - ( 0 km )
METAR: RCKH 180817Z 28009KT 9999 SCT015 BKN100 30/23 Q1007 NOSIG RMK A2976
View NOTAMs / SUP AIP / TFR affecting this airport [VIEW]
Communications frequencies: [VIEW]

Runways:

Airport contact information

Address: Jiménez Mexico

Satellite view of MMRTI